This is the latest recevied weather packets stored in our database for station/object SQ9PDE-13. If no packets are shown the sender has not sent any weather packets the latest 10 day(s).
| Time | Temp. | Humidity | Pressure | Rain* | Wind** | Luminosity | Snow |
|---|---|---|---|---|---|---|---|
| 1787929502 | 26.11° C | 37% | 1014.7 hPa | - | - | - | - |
| 1787929201 | 26.11° C | 37% | 1014.7 hPa | - | - | - | - |
| 1787928901 | 26.67° C | 38% | 1014.8 hPa | - | - | - | - |
| 1787928600 | 26.11° C | 38% | 1014.7 hPa | - | - | - | - |
| 1787928299 | 26.67° C | 37% | 1014.6 hPa | - | - | - | - |
| 1787927999 | 26.67° C | 37% | 1014.8 hPa | - | - | - | - |
| 1787927698 | 26.11° C | 37% | 1014.9 hPa | - | - | - | - |
| 1787927398 | 26.67° C | 37% | 1014.8 hPa | - | - | - | - |
| 1787927097 | 26.67° C | 37% | 1015 hPa | - | - | - | - |
| 1787915950 | 25° C | 38% | 1017.1 hPa | - | - | - | - |
| 1787915650 | 25° C | 37% | 1017.1 hPa | - | - | - | - |
| 1787915350 | 25° C | 38% | 1017.2 hPa | - | - | - | - |
| 1787915049 | 25.56° C | 39% | 1017.2 hPa | - | - | - | - |
| 1787914748 | 25.56° C | 38% | 1017.2 hPa | - | - | - | - |
| 1787914448 | 25.56° C | 40% | 1017.4 hPa | - | - | - | - |
| 1787914147 | 25° C | 40% | 1017.5 hPa | - | - | - | - |
| 1787913847 | 25.56° C | 39% | 1017.8 hPa | - | - | - | - |
| 1787913546 | 25.56° C | 38% | 1017.8 hPa | - | - | - | - |
| 1787913246 | 25° C | 39% | 1017.9 hPa | - | - | - | - |
| 1787912945 | 25.56° C | 38% | 1017.9 hPa | - | - | - | - |
| 1787912645 | 26.11° C | 38% | 1017.8 hPa | - | - | - | - |
| 1787912344 | 25.56° C | 38% | 1018 hPa | - | - | - | - |
| 1787912044 | 26.11° C | 37% | 1017.9 hPa | - | - | - | - |
| 1787911743 | 26.11° C | 38% | 1018.1 hPa | - | - | - | - |
| 1787911443 | 25° C | 39% | 1018.4 hPa | - | - | - | - |
* Rain since midnight (hover to see other rain measurements)
** Current wind speed in m/s (hover to see current wind gust speed)